Platitera Thassou — SY5479 — position and weather

sailwx.info

Track history (hours):
 
Tides and Currents Weather Stations Pressure Air Temp Water Temp Dewpoint Dewpoint Depression Visibility Wind Speed Wind Dir Waves Ship Positions

Platitera Thassou

Last reported at 2017-Sep-21 15:06 UTC. Time now 2017-Sep-22 01:13 UTC.
Position N 40°51' E 024°42'.

Length 84 m; draft 2.4 m.

Type: Passenger vessel. MMSI: 237871300.

Date/timePositionNaut miles runAvg speedWind from/ knotsBaromVisibWave heightAir tempDewpointWater temp
2017-Sep-21 15:06N 40°51' E 024°42'0 0.0
2017-Sep-21 15:00N 40°51' E 024°42'1 1.9
2017-Sep-21 14:30N 40°51' E 024°41'5 9.3
2017-Sep-21 14:00N 40°47' E 024°42'0 0.6
2017-Sep-21 13:29N 40°47' E 024°43'0 0.0
2017-Sep-21 12:59N 40°47' E 024°43'0 0.5
2017-Sep-21 12:30N 40°47' E 024°42'0 0.0
2017-Sep-21 12:00N 40°47' E 024°42'1 2.0
2017-Sep-21 11:30N 40°48' E 024°42'4 7.3
2017-Sep-21 11:00N 40°51' E 024°42'0 0.0
2017-Sep-21 10:28N 40°51' E 024°42'2 5.4
2017-Sep-21 10:00N 40°49' E 024°42'2 3.8
2017-Sep-21 09:26N 40°47' E 024°42'0 0.0
2017-Sep-21 08:59N 40°47' E 024°42'0 0.0
2017-Sep-20 19:26N 40°47' E 024°42'1 2.0
2017-Sep-20 19:00N 40°48' E 024°42'4 7.6
2017-Sep-20 18:30N 40°51' E 024°42'1 2.0
2017-Sep-20 18:00N 40°51' E 024°41'5 9.3
2017-Sep-20 17:30N 40°47' E 024°42'1 1.6
2017-Sep-20 17:00N 40°48' E 024°42'4 7.7
2017-Sep-20 16:30N 40°51' E 024°42'0 0.0
2017-Sep-20 15:58N 40°51' E 024°42'0 0.0
2017-Sep-20 15:25N 40°51' E 024°42'2 5.8
2017-Sep-20 15:00N 40°49' E 024°42'2 2.2
2017-Sep-20 13:59N 40°47' E 024°42'0 0.0
2017-Sep-20 13:29N 40°47' E 024°42'0 0.0
2017-Sep-20 12:59N 40°47' E 024°42'0 0.0
2017-Sep-20 12:29N 40°47' E 024°42'1 2.2
2017-Sep-20 12:00N 40°48' E 024°42'4 6.8
2017-Sep-20 11:28N 40°51' E 024°42'0 0.0
2017-Sep-20 10:59N 40°51' E 024°42'2 5.1
2017-Sep-20 10:31N 40°49' E 024°42'2 4.5
2017-Sep-20 10:00N 40°47' E 024°42'3 7.1
2017-Sep-20 09:30N 40°50' E 024°41'2 2.9
2017-Sep-20 08:59N 40°51' E 024°42'1 1.7
2017-Sep-20 08:30N 40°52' E 024°41'5 9.6
2017-Sep-20 08:00N 40°47' E 024°42'1 1.9
2017-Sep-20 07:30N 40°48' E 024°42'4 7.4
2017-Sep-20 07:00N 40°51' E 024°42'0 0.0
2017-Sep-20 06:28N 40°51' E 024°42'3 5.6
2017-Sep-20 06:00N 40°49' E 024°42'2 4.2
2017-Sep-20 05:30N 40°47' E 024°42'0 0.0
2017-Sep-20 05:00N 40°47' E 024°42'0 0.0
2017-Sep-20 04:30N 40°47' E 024°42'0 0.0
2017-Sep-20 04:00N 40°47' E 024°42'0 0.0
2017-Sep-20 03:30N 40°47' E 024°42'0 0.0
2017-Sep-20 03:00N 40°47' E 024°42'0 0.0
2017-Sep-20 02:30N 40°47' E 024°42'0 0.0
2017-Sep-20 02:00N 40°47' E 024°42'0 0.0
2017-Sep-20 01:30N 40°47' E 024°42'0 0.0
2017-Sep-20 01:00N 40°47' E 024°42'0 0.0
2017-Sep-20 00:30N 40°47' E 024°42'0 0.0
2017-Sep-19 23:57N 40°47' E 024°42'0 0.0
2017-Sep-19 23:30N 40°47' E 024°42'0 0.0
2017-Sep-19 22:57N 40°47' E 024°42'0 0.0
2017-Sep-19 22:30N 40°47' E 024°42'0 0.0
2017-Sep-19 22:00N 40°47' E 024°42'0 0.0
2017-Sep-19 21:30N 40°47' E 024°42'0 0.0
2017-Sep-19 21:00N 40°47' E 024°42'0 0.0
2017-Sep-19 20:30N 40°47' E 024°42'0 0.0
2017-Sep-19 20:00N 40°47' E 024°42'0 0.0
2017-Sep-19 19:30N 40°47' E 024°42'0 0.0
2017-Sep-19 19:00N 40°47' E 024°42'0 0.0
2017-Sep-19 18:30N 40°47' E 024°42'0 0.0
2017-Sep-19 17:57N 40°47' E 024°42'0 0.0
2017-Sep-19 17:30N 40°47' E 024°42'0 0.0
2017-Sep-19 17:00N 40°47' E 024°42'0 0.0
2017-Sep-19 16:30N 40°47' E 024°42'0 0.0
2017-Sep-19 16:00N 40°47' E 024°42'0 0.0
2017-Sep-19 15:30N 40°47' E 024°42'0 0.0
2017-Sep-19 15:00N 40°47' E 024°42'0 0.0
2017-Sep-19 14:30N 40°47' E 024°42'0 0.0
2017-Sep-19 14:00N 40°47' E 024°42'0 0.0
2017-Sep-19 13:30N 40°47' E 024°42'0 0.0
2017-Sep-19 13:00N 40°47' E 024°42'0 0.0
2017-Sep-19 12:30N 40°47' E 024°42'0 0.0
2017-Sep-19 12:00N 40°47' E 024°42'0 0.0
2017-Sep-19 11:30N 40°47' E 024°42'0 0.0
2017-Sep-19 10:57N 40°47' E 024°42'0 0.0
2017-Sep-19 10:27N 40°47' E 024°42'0 0.0
2017-Sep-19 10:00N 40°47' E 024°42'0 0.0
2017-Sep-19 09:28N 40°47' E 024°42'3 7.5
2017-Sep-19 09:00N 40°50' E 024°41'1 2.8
2017-Sep-19 08:28N 40°51' E 024°42'1 1.9
2017-Sep-19 08:00N 40°51' E 024°41'5 9.1
2017-Sep-19 07:30N 40°47' E 024°42'1 1.9
2017-Sep-19 07:00N 40°48' E 024°42'4 7.4
2017-Sep-19 06:30N 40°51' E 024°42'0 0.0
2017-Sep-19 05:56N 40°51' E 024°42'3 6.1
2017-Sep-19 05:30N 40°49' E 024°42'2 3.8
2017-Sep-19 04:56N 40°47' E 024°42'0 0.0
2017-Sep-19 04:30N 40°47' E 024°42'4 7.1
2017-Sep-19 04:00N 40°50' E 024°41'1 2.9
2017-Sep-19 03:30N 40°51' E 024°42'1 1.9
2017-Sep-19 03:00N 40°51' E 024°41'5 9.4
2017-Sep-19 02:30N 40°47' E 024°42'0 0.0
2017-Sep-19 01:59N 40°47' E 024°42'0 0.0
2017-Sep-18 13:17N 40°47' E 024°42'0 0.0
2017-Sep-18 13:00N 40°47' E 024°42'3 6.9
2017-Sep-18 12:30N 40°50' E 024°41'1 2.6
2017-Sep-18 11:58N 40°51' E 024°42'1 1.9
2017-Sep-18 11:31N 40°51' E 024°41'5 9.5
2017-Sep-18 11:00N 40°47' E 024°42'0 0.0
2017-Sep-18 10:29N 40°47' E 024°42'0 0.0
2017-Sep-18 09:59N 40°47' E 024°42'0 0.0
2017-Sep-18 09:29N 40°47' E 024°42'0 0.0
2017-Sep-18 08:59N 40°47' E 024°42'1 2.2
2017-Sep-18 08:30N 40°48' E 024°42'4 7.2
2017-Sep-18 08:01N 40°51' E 024°42'0 0.0
2017-Sep-18 07:29N 40°51' E 024°42'3 5.5
2017-Sep-18 07:00N 40°49' E 024°42'2 4.2
2017-Sep-18 06:30N 40°47' E 024°42'0 0.0
2017-Sep-17 17:59N 40°47' E 024°42'3 6.8
2017-Sep-17 17:30N 40°50' E 024°41'2 3.1
2017-Sep-17 17:00N 40°51' E 024°42'1 1.9
2017-Sep-17 16:30N 40°51' E 024°41'4 8.8
2017-Sep-17 16:00N 40°47' E 024°42'1 1.3
2017-Sep-17 15:30N 40°47' E 024°42'4 8.1
2017-Sep-17 15:00N 40°51' E 024°42'0 0.1
2017-Sep-17 14:30N 40°51' E 024°42'2 4.8
2017-Sep-17 14:00N 40°49' E 024°42'2 4.7
2017-Sep-17 13:30N 40°47' E 024°42'1 1.7
2017-Sep-17 13:00N 40°48' E 024°42'4 7.6
2017-Sep-17 12:30N 40°51' E 024°42'0 0.0
2017-Sep-17 12:00N 40°51' E 024°42'2 4.9
2017-Sep-17 11:30N 40°49' E 024°42'2 4.5
2017-Sep-17 11:00N 40°47' E 024°42'1 1.6
2017-Sep-17 10:30N 40°48' E 024°42'4 7.7
2017-Sep-17 10:00N 40°51' E 024°42'0 0.0
2017-Sep-17 09:30N 40°51' E 024°42'2 4.9
2017-Sep-17 09:00N 40°49' E 024°42'2 0.1
2017-Sep-16 18:05N 40°47' E 024°42'0 0.0
2017-Sep-16 18:00N 40°47' E 024°42'3 6.6
2017-Sep-16 17:31N 40°50' E 024°41'2 3.2
2017-Sep-16 17:01N 40°51' E 024°42'1 1.4
2017-Sep-16 16:31N 40°52' E 024°41'5 9.6
2017-Sep-16 16:01N 40°47' E 024°42'0 0.1
2017-Sep-16 15:31N 40°47' E 024°42'0 0.0
2017-Sep-16 15:01N 40°47' E 024°42'1 1.8
2017-Sep-16 14:31N 40°48' E 024°42'4 7.6
2017-Sep-16 14:01N 40°51' E 024°42'0 0.1
2017-Sep-16 13:31N 40°51' E 024°42'3 5.0
2017-Sep-16 13:00N 40°49' E 024°42'2 4.4
2017-Sep-16 12:30N 40°47' E 024°42'1 2.0
2017-Sep-16 12:01N 40°48' E 024°42'4 7.3
2017-Sep-16 11:30N 40°51' E 024°42'0 0.0
2017-Sep-16 11:00N 40°51' E 024°42'2 5.0
2017-Sep-16 10:31N 40°49' E 024°41'2 4.6
2017-Sep-16 10:00N 40°47' E 024°42'1 2.5
2017-Sep-16 09:31N 40°48' E 024°42'4 7.0
2017-Sep-16 09:01N 40°51' E 024°42'0 0.1
2017-Sep-16 08:31N 40°51' E 024°42'2 5.0
2017-Sep-16 08:01N 40°49' E 024°42'2 4.5
2017-Sep-16 07:31N 40°47' E 024°42'0 0.0
2017-Sep-15 12:39N 40°47' E 024°42'1 4.3
2017-Sep-15 12:30N 40°47' E 024°42'4 8.1
2017-Sep-15 12:00N 40°51' E 024°42'0 0.0
2017-Sep-15 11:30N 40°51' E 024°42'2 4.6
2017-Sep-15 11:00N 40°49' E 024°42'2 5.0
2017-Sep-15 10:30N 40°47' E 024°42'1 1.5
2017-Sep-15 10:00N 40°48' E 024°42'4 7.7
2017-Sep-15 09:30N 40°51' E 024°42'0 0.0
2017-Sep-15 09:00N 40°51' E 024°42'2 4.6
2017-Sep-15 08:30N 40°49' E 024°42'2 4.9
2017-Sep-15 08:00N 40°47' E 024°42'1 1.3
2017-Sep-15 07:30N 40°47' E 024°42'4 8.0
2017-Sep-15 07:00N 40°51' E 024°42'0 0.0
2017-Sep-15 06:30N 40°51' E 024°42'2 4.9
2017-Sep-15 06:00N 40°49' E 024°42'2 4.5
2017-Sep-15 05:30N 40°47' E 024°42'1 1.3
2017-Sep-15 05:00N 40°47' E 024°42'4 8.1
2017-Sep-15 04:30N 40°51' E 024°42'0 0.0
2017-Sep-15 04:00N 40°51' E 024°42'2 4.7
2017-Sep-15 03:30N 40°49' E 024°42'2 4.7
2017-Sep-15 03:00N 40°47' E 024°42'0 0.0
2017-Sep-14 08:52N 40°47' E 024°43'1 2.7
2017-Sep-14 08:30N 40°48' E 024°42'4 7.6
2017-Sep-14 08:00N 40°51' E 024°42'0 0.0
2017-Sep-14 07:31N 40°51' E 024°42'2 4.7
2017-Sep-14 07:00N 40°49' E 024°41'2 4.7
2017-Sep-14 06:30N 40°47' E 024°42'1 1.5
2017-Sep-14 06:00N 40°48' E 024°42'4 7.9
2017-Sep-14 05:30N 40°51' E 024°42'0 0.0
2017-Sep-14 05:00N 40°51' E 024°42'2 4.7
2017-Sep-14 04:30N 40°49' E 024°42'2 4.8
2017-Sep-14 04:00N 40°47' E 024°42'0 0.0
2017-Sep-14 03:31N 40°47' E 024°42'4 7.1
2017-Sep-14 03:00N 40°50' E 024°41'1 0.2
2017-Sep-13 18:14N 40°51' E 024°42'1 3.2
2017-Sep-13 18:00N 40°52' E 024°41'5 9.6
2017-Sep-13 17:30N 40°47' E 024°42'0 0.0
2017-Sep-13 17:00N 40°47' E 024°42'0 0.0
2017-Sep-13 16:30N 40°47' E 024°42'0 0.0
2017-Sep-13 16:00N 40°47' E 024°42'1 1.4
2017-Sep-13 15:30N 40°47' E 024°42'4 7.9
2017-Sep-13 15:00N 40°51' E 024°42'0 0.0
2017-Sep-13 14:30N 40°51' E 024°42'2 4.8
2017-Sep-13 14:00N 40°49' E 024°42'2 0.1
2017-Sep-12 20:50N 40°47' E 024°42'1 3.9
2017-Sep-12 20:31N 40°48' E 024°42'3 6.9
2017-Sep-12 20:01N 40°51' E 024°42'0 0.0
2017-Sep-12 19:30N 40°51' E 024°42'2 4.7
2017-Sep-12 19:01N 40°49' E 024°42'2 4.6
2017-Sep-12 18:31N 40°47' E 024°42'0 0.0
2017-Sep-12 18:01N 40°47' E 024°42'0 0.0
2017-Sep-12 17:31N 40°47' E 024°42'0 0.0
2017-Sep-12 17:00N 40°47' E 024°42'0 0.0
2017-Sep-12 16:31N 40°47' E 024°42'0 0.0
2017-Sep-12 16:01N 40°47' E 024°42'0 0.0
2017-Sep-12 15:31N 40°47' E 024°42'1 2.3
2017-Sep-12 15:01N 40°48' E 024°42'3 7.0
2017-Sep-12 14:31N 40°51' E 024°42'0 0.0
2017-Sep-12 14:01N 40°51' E 024°42'2 5.0
2017-Sep-12 13:30N 40°49' E 024°42'2 4.4
2017-Sep-12 13:00N 40°47' E 024°42'1 1.9
2017-Sep-12 12:31N 40°48' E 024°42'4 7.4
2017-Sep-12 12:01N 40°51' E 024°42'0 0.0
2017-Sep-12 11:31N 40°51' E 024°42'3 5.0
2017-Sep-12 11:01N 40°49' E 024°42'2 4.4
2017-Sep-12 10:31N 40°47' E 024°42'0 0.5
2017-Sep-12 10:01N 40°47' E 024°43'  
Track history (hours):
 
Tides and Currents Weather Stations Pressure Air Temp Water Temp Dewpoint Dewpoint Depression Visibility Wind Speed Wind Dir Waves Ship Positions

Platitera Thassou

Last reported at 2017-Sep-21 15:06 UTC. Time now 2017-Sep-22 01:13 UTC.
Position N 40°51' E 024°42'.

Length 84 m; draft 2.4 m.

Type: Passenger vessel. MMSI: 237871300.

Date/timePositionNaut miles runAvg speedWind from/ knotsBaromVisibWave heightAir tempDewpointWater temp
2017-Sep-21 15:06N 40°51' E 024°42'0 0.0
2017-Sep-21 15:00N 40°51' E 024°42'1 1.9
2017-Sep-21 14:30N 40°51' E 024°41'5 9.3
2017-Sep-21 14:00N 40°47' E 024°42'0 0.6
2017-Sep-21 13:29N 40°47' E 024°43'0 0.0
2017-Sep-21 12:59N 40°47' E 024°43'0 0.5
2017-Sep-21 12:30N 40°47' E 024°42'0 0.0
2017-Sep-21 12:00N 40°47' E 024°42'1 2.0
2017-Sep-21 11:30N 40°48' E 024°42'4 7.3
2017-Sep-21 11:00N 40°51' E 024°42'0 0.0
2017-Sep-21 10:28N 40°51' E 024°42'2 5.4
2017-Sep-21 10:00N 40°49' E 024°42'2 3.8
2017-Sep-21 09:26N 40°47' E 024°42'0 0.0
2017-Sep-21 08:59N 40°47' E 024°42'0 0.0
2017-Sep-20 19:26N 40°47' E 024°42'1 2.0
2017-Sep-20 19:00N 40°48' E 024°42'4 7.6
2017-Sep-20 18:30N 40°51' E 024°42'1 2.0
2017-Sep-20 18:00N 40°51' E 024°41'5 9.3
2017-Sep-20 17:30N 40°47' E 024°42'1 1.6
2017-Sep-20 17:00N 40°48' E 024°42'4 7.7
2017-Sep-20 16:30N 40°51' E 024°42'0 0.0
2017-Sep-20 15:58N 40°51' E 024°42'0 0.0
2017-Sep-20 15:25N 40°51' E 024°42'2 5.8
2017-Sep-20 15:00N 40°49' E 024°42'2 2.2
2017-Sep-20 13:59N 40°47' E 024°42'0 0.0
2017-Sep-20 13:29N 40°47' E 024°42'0 0.0
2017-Sep-20 12:59N 40°47' E 024°42'0 0.0
2017-Sep-20 12:29N 40°47' E 024°42'1 2.2
2017-Sep-20 12:00N 40°48' E 024°42'4 6.8
2017-Sep-20 11:28N 40°51' E 024°42'0 0.0
2017-Sep-20 10:59N 40°51' E 024°42'2 5.1
2017-Sep-20 10:31N 40°49' E 024°42'2 4.5
2017-Sep-20 10:00N 40°47' E 024°42'3 7.1
2017-Sep-20 09:30N 40°50' E 024°41'2 2.9
2017-Sep-20 08:59N 40°51' E 024°42'1 1.7
2017-Sep-20 08:30N 40°52' E 024°41'5 9.6
2017-Sep-20 08:00N 40°47' E 024°42'1 1.9
2017-Sep-20 07:30N 40°48' E 024°42'4 7.4
2017-Sep-20 07:00N 40°51' E 024°42'0 0.0
2017-Sep-20 06:28N 40°51' E 024°42'3 5.6
2017-Sep-20 06:00N 40°49' E 024°42'2 4.2
2017-Sep-20 05:30N 40°47' E 024°42'0 0.0
2017-Sep-20 05:00N 40°47' E 024°42'0 0.0
2017-Sep-20 04:30N 40°47' E 024°42'0 0.0
2017-Sep-20 04:00N 40°47' E 024°42'0 0.0
2017-Sep-20 03:30N 40°47' E 024°42'0 0.0
2017-Sep-20 03:00N 40°47' E 024°42'0 0.0
2017-Sep-20 02:30N 40°47' E 024°42'0 0.0
2017-Sep-20 02:00N 40°47' E 024°42'0 0.0
2017-Sep-20 01:30N 40°47' E 024°42'0 0.0
2017-Sep-20 01:00N 40°47' E 024°42'0 0.0
2017-Sep-20 00:30N 40°47' E 024°42'0 0.0
2017-Sep-19 23:57N 40°47' E 024°42'0 0.0
2017-Sep-19 23:30N 40°47' E 024°42'0 0.0
2017-Sep-19 22:57N 40°47' E 024°42'0 0.0
2017-Sep-19 22:30N 40°47' E 024°42'0 0.0
2017-Sep-19 22:00N 40°47' E 024°42'0 0.0
2017-Sep-19 21:30N 40°47' E 024°42'0 0.0
2017-Sep-19 21:00N 40°47' E 024°42'0 0.0
2017-Sep-19 20:30N 40°47' E 024°42'0 0.0
2017-Sep-19 20:00N 40°47' E 024°42'0 0.0
2017-Sep-19 19:30N 40°47' E 024°42'0 0.0
2017-Sep-19 19:00N 40°47' E 024°42'0 0.0
2017-Sep-19 18:30N 40°47' E 024°42'0 0.0
2017-Sep-19 17:57N 40°47' E 024°42'0 0.0
2017-Sep-19 17:30N 40°47' E 024°42'0 0.0
2017-Sep-19 17:00N 40°47' E 024°42'0 0.0
2017-Sep-19 16:30N 40°47' E 024°42'0 0.0
2017-Sep-19 16:00N 40°47' E 024°42'0 0.0
2017-Sep-19 15:30N 40°47' E 024°42'0 0.0
2017-Sep-19 15:00N 40°47' E 024°42'0 0.0
2017-Sep-19 14:30N 40°47' E 024°42'0 0.0
2017-Sep-19 14:00N 40°47' E 024°42'0 0.0
2017-Sep-19 13:30N 40°47' E 024°42'0 0.0
2017-Sep-19 13:00N 40°47' E 024°42'0 0.0
2017-Sep-19 12:30N 40°47' E 024°42'0 0.0
2017-Sep-19 12:00N 40°47' E 024°42'0 0.0
2017-Sep-19 11:30N 40°47' E 024°42'0 0.0
2017-Sep-19 10:57N 40°47' E 024°42'0 0.0
2017-Sep-19 10:27N 40°47' E 024°42'0 0.0
2017-Sep-19 10:00N 40°47' E 024°42'0 0.0
2017-Sep-19 09:28N 40°47' E 024°42'3 7.5
2017-Sep-19 09:00N 40°50' E 024°41'1 2.8
2017-Sep-19 08:28N 40°51' E 024°42'1 1.9
2017-Sep-19 08:00N 40°51' E 024°41'5 9.1
2017-Sep-19 07:30N 40°47' E 024°42'1 1.9
2017-Sep-19 07:00N 40°48' E 024°42'4 7.4
2017-Sep-19 06:30N 40°51' E 024°42'0 0.0
2017-Sep-19 05:56N 40°51' E 024°42'3 6.1
2017-Sep-19 05:30N 40°49' E 024°42'2 3.8
2017-Sep-19 04:56N 40°47' E 024°42'0 0.0
2017-Sep-19 04:30N 40°47' E 024°42'4 7.1
2017-Sep-19 04:00N 40°50' E 024°41'1 2.9
2017-Sep-19 03:30N 40°51' E 024°42'1 1.9
2017-Sep-19 03:00N 40°51' E 024°41'5 9.4
2017-Sep-19 02:30N 40°47' E 024°42'0 0.0
2017-Sep-19 01:59N 40°47' E 024°42'0 0.0
2017-Sep-18 13:17N 40°47' E 024°42'0 0.0
2017-Sep-18 13:00N 40°47' E 024°42'3 6.9
2017-Sep-18 12:30N 40°50' E 024°41'1 2.6
2017-Sep-18 11:58N 40°51' E 024°42'1 1.9
2017-Sep-18 11:31N 40°51' E 024°41'5 9.5
2017-Sep-18 11:00N 40°47' E 024°42'0 0.0
2017-Sep-18 10:29N 40°47' E 024°42'0 0.0
2017-Sep-18 09:59N 40°47' E 024°42'0 0.0
2017-Sep-18 09:29N 40°47' E 024°42'0 0.0
2017-Sep-18 08:59N 40°47' E 024°42'1 2.2
2017-Sep-18 08:30N 40°48' E 024°42'4 7.2
2017-Sep-18 08:01N 40°51' E 024°42'0 0.0
2017-Sep-18 07:29N 40°51' E 024°42'3 5.5
2017-Sep-18 07:00N 40°49' E 024°42'2 4.2
2017-Sep-18 06:30N 40°47' E 024°42'0 0.0
2017-Sep-17 17:59N 40°47' E 024°42'3 6.8
2017-Sep-17 17:30N 40°50' E 024°41'2 3.1
2017-Sep-17 17:00N 40°51' E 024°42'1 1.9
2017-Sep-17 16:30N 40°51' E 024°41'4 8.8
2017-Sep-17 16:00N 40°47' E 024°42'1 1.3
2017-Sep-17 15:30N 40°47' E 024°42'4 8.1
2017-Sep-17 15:00N 40°51' E 024°42'0 0.1
2017-Sep-17 14:30N 40°51' E 024°42'2 4.8
2017-Sep-17 14:00N 40°49' E 024°42'2 4.7
2017-Sep-17 13:30N 40°47' E 024°42'1 1.7
2017-Sep-17 13:00N 40°48' E 024°42'4 7.6
2017-Sep-17 12:30N 40°51' E 024°42'0 0.0
2017-Sep-17 12:00N 40°51' E 024°42'2 4.9
2017-Sep-17 11:30N 40°49' E 024°42'2 4.5
2017-Sep-17 11:00N 40°47' E 024°42'1 1.6
2017-Sep-17 10:30N 40°48' E 024°42'4 7.7
2017-Sep-17 10:00N 40°51' E 024°42'0 0.0
2017-Sep-17 09:30N 40°51' E 024°42'2 4.9
2017-Sep-17 09:00N 40°49' E 024°42'2 0.1
2017-Sep-16 18:05N 40°47' E 024°42'0 0.0
2017-Sep-16 18:00N 40°47' E 024°42'3 6.6
2017-Sep-16 17:31N 40°50' E 024°41'2 3.2
2017-Sep-16 17:01N 40°51' E 024°42'1 1.4
2017-Sep-16 16:31N 40°52' E 024°41'5 9.6
2017-Sep-16 16:01N 40°47' E 024°42'0 0.1
2017-Sep-16 15:31N 40°47' E 024°42'0 0.0
2017-Sep-16 15:01N 40°47' E 024°42'1 1.8
2017-Sep-16 14:31N 40°48' E 024°42'4 7.6
2017-Sep-16 14:01N 40°51' E 024°42'0 0.1
2017-Sep-16 13:31N 40°51' E 024°42'3 5.0
2017-Sep-16 13:00N 40°49' E 024°42'2 4.4
2017-Sep-16 12:30N 40°47' E 024°42'1 2.0
2017-Sep-16 12:01N 40°48' E 024°42'4 7.3
2017-Sep-16 11:30N 40°51' E 024°42'0 0.0
2017-Sep-16 11:00N 40°51' E 024°42'2 5.0
2017-Sep-16 10:31N 40°49' E 024°41'2 4.6
2017-Sep-16 10:00N 40°47' E 024°42'1 2.5
2017-Sep-16 09:31N 40°48' E 024°42'4 7.0
2017-Sep-16 09:01N 40°51' E 024°42'0 0.1
2017-Sep-16 08:31N 40°51' E 024°42'2 5.0
2017-Sep-16 08:01N 40°49' E 024°42'2 4.5
2017-Sep-16 07:31N 40°47' E 024°42'0 0.0
2017-Sep-15 12:39N 40°47' E 024°42'1 4.3
2017-Sep-15 12:30N 40°47' E 024°42'4 8.1
2017-Sep-15 12:00N 40°51' E 024°42'0 0.0
2017-Sep-15 11:30N 40°51' E 024°42'2 4.6
2017-Sep-15 11:00N 40°49' E 024°42'2 5.0
2017-Sep-15 10:30N 40°47' E 024°42'1 1.5
2017-Sep-15 10:00N 40°48' E 024°42'4 7.7
2017-Sep-15 09:30N 40°51' E 024°42'0 0.0
2017-Sep-15 09:00N 40°51' E 024°42'2 4.6
2017-Sep-15 08:30N 40°49' E 024°42'2 4.9
2017-Sep-15 08:00N 40°47' E 024°42'1 1.3
2017-Sep-15 07:30N 40°47' E 024°42'4 8.0
2017-Sep-15 07:00N 40°51' E 024°42'0 0.0
2017-Sep-15 06:30N 40°51' E 024°42'2 4.9
2017-Sep-15 06:00N 40°49' E 024°42'2 4.5
2017-Sep-15 05:30N 40°47' E 024°42'1 1.3
2017-Sep-15 05:00N 40°47' E 024°42'4 8.1
2017-Sep-15 04:30N 40°51' E 024°42'0 0.0
2017-Sep-15 04:00N 40°51' E 024°42'2 4.7
2017-Sep-15 03:30N 40°49' E 024°42'2 4.7
2017-Sep-15 03:00N 40°47' E 024°42'0 0.0
2017-Sep-14 08:52N 40°47' E 024°43'1 2.7
2017-Sep-14 08:30N 40°48' E 024°42'4 7.6
2017-Sep-14 08:00N 40°51' E 024°42'0 0.0
2017-Sep-14 07:31N 40°51' E 024°42'2 4.7
2017-Sep-14 07:00N 40°49' E 024°41'2 4.7
2017-Sep-14 06:30N 40°47' E 024°42'1 1.5
2017-Sep-14 06:00N 40°48' E 024°42'4 7.9
2017-Sep-14 05:30N 40°51' E 024°42'0 0.0
2017-Sep-14 05:00N 40°51' E 024°42'2 4.7
2017-Sep-14 04:30N 40°49' E 024°42'2 4.8
2017-Sep-14 04:00N 40°47' E 024°42'0 0.0
2017-Sep-14 03:31N 40°47' E 024°42'4 7.1
2017-Sep-14 03:00N 40°50' E 024°41'1 0.2
2017-Sep-13 18:14N 40°51' E 024°42'1 3.2
2017-Sep-13 18:00N 40°52' E 024°41'5 9.6
2017-Sep-13 17:30N 40°47' E 024°42'0 0.0
2017-Sep-13 17:00N 40°47' E 024°42'0 0.0
2017-Sep-13 16:30N 40°47' E 024°42'0 0.0
2017-Sep-13 16:00N 40°47' E 024°42'1 1.4
2017-Sep-13 15:30N 40°47' E 024°42'4 7.9
2017-Sep-13 15:00N 40°51' E 024°42'0 0.0
2017-Sep-13 14:30N 40°51' E 024°42'2 4.8
2017-Sep-13 14:00N 40°49' E 024°42'2 0.1
2017-Sep-12 20:50N 40°47' E 024°42'1 3.9
2017-Sep-12 20:31N 40°48' E 024°42'3 6.9
2017-Sep-12 20:01N 40°51' E 024°42'0 0.0
2017-Sep-12 19:30N 40°51' E 024°42'2 4.7
2017-Sep-12 19:01N 40°49' E 024°42'2 4.6
2017-Sep-12 18:31N 40°47' E 024°42'0 0.0
2017-Sep-12 18:01N 40°47' E 024°42'0 0.0
2017-Sep-12 17:31N 40°47' E 024°42'0 0.0
2017-Sep-12 17:00N 40°47' E 024°42'0 0.0
2017-Sep-12 16:31N 40°47' E 024°42'0 0.0
2017-Sep-12 16:01N 40°47' E 024°42'0 0.0
2017-Sep-12 15:31N 40°47' E 024°42'1 2.3
2017-Sep-12 15:01N 40°48' E 024°42'3 7.0
2017-Sep-12 14:31N 40°51' E 024°42'0 0.0
2017-Sep-12 14:01N 40°51' E 024°42'2 5.0
2017-Sep-12 13:30N 40°49' E 024°42'2 4.4
2017-Sep-12 13:00N 40°47' E 024°42'1 1.9
2017-Sep-12 12:31N 40°48' E 024°42'4 7.4
2017-Sep-12 12:01N 40°51' E 024°42'0 0.0
2017-Sep-12 11:31N 40°51' E 024°42'3 5.0
2017-Sep-12 11:01N 40°49' E 024°42'2 4.4
2017-Sep-12 10:31N 40°47' E 024°42'0 0.5
2017-Sep-12 10:01N 40°47' E 024°43'  

Dump ship's entire track history